Latest Weather Observations for Karratha

IDW60801

Issued at 6:02 am WST Saturday 13 February 2016 (issued every 30 minutes, with the page automatically refreshed every 10 minutes)

About weather observations | Map of weather stations | Latest weather observations for WA | Other Formats
Station Details ID: 004083 Name: KARRATHA AERO Lat: -20.71 Lon: 116.77 Height: 5.3 m
Data from the previous 72 hours. | See also: Recent months at Karratha
Date/Time
WST
Temp
°C
App
Temp
°C
Dew
Point
Rel
Hum
%
Delta-T
°C
Wind Press
QNH
hPa
Press
MSL
hPa
Rain
since 9 am
mm
Dir
 
Spd
km/h
Gust
km/h
Spd
kts
Gust
kts
13/06:00am 28.9 34.3 28.2 96 0.5 W 17 20 9 11 1007.0 1006.9 0.0
13/05:30am 28.9 34.1 28.0 95 0.7 WNW 17 20 9 11 1006.6 1006.5 0.0
13/05:00am 28.1 34.1 26.9 93 0.9 WSW 9 13 5 7 1006.6 1006.5 0.0
13/04:30am 29.2 35.8 27.8 92 1.0 W 9 13 5 7 1006.7 1006.6 0.0
13/04:00am 29.4 35.5 27.6 90 1.3 WNW 11 15 6 8 1006.7 1006.6 0.0
13/03:30am 29.6 35.3 27.6 89 1.4 WNW 13 17 7 9 1006.4 1006.3 0.0
13/03:00am 29.6 34.3 27.2 87 1.7 W 17 20 9 11 1006.2 1006.1 0.0
13/02:30am 29.7 33.9 27.1 86 1.9 W 19 20 10 11 1006.3 1006.2 0.0
13/02:00am 29.8 33.7 26.6 83 2.3 WSW 19 24 10 13 1006.9 1006.8 0.0
13/01:30am 30.3 33.3 26.2 79 2.9 W 22 28 12 15 1006.9 1006.8 0.0
13/01:00am 30.5 34.4 26.9 81 2.6 W 20 24 11 13 1007.0 1006.9 0.0
13/12:30am 30.5 35.2 27.3 83 2.3 W 17 20 9 11 1007.1 1007.0 0.0
13/12:00am 30.8 35.7 28.0 85 2.0 W 19 20 10 11 1007.3 1007.2 0.0
 
Date/Time
WST
Temp
°C
App
Temp
°C
Dew
Point
Rel
Hum
%
Delta-T
°C
Wind Press
QNH
hPa
Press
MSL
hPa
Rain
since 9 am
mm
Dir
 
Spd
km/h
Gust
km/h
Spd
kts
Gust
kts
12/11:30pm 30.8 35.2 27.4 82 2.5 W 19 22 10 12 1007.5 1007.4 0.0
12/11:00pm 30.9 34.5 27.5 82 2.5 WSW 24 26 13 14 1007.6 1007.5 0.0
12/10:30pm 30.8 34.5 28.2 86 1.9 W 26 32 14 17 1007.7 1007.6 0.0
12/10:00pm 31.5 32.6 25.6 71 4.2 W 30 33 16 18 1007.5 1007.4 0.0
12/09:30pm 31.4 34.6 26.4 75 3.6 W 22 28 12 15 1007.4 1007.3 0.0
12/09:00pm 31.7 35.4 27.2 77 3.3 W 22 26 12 14 1007.1 1007.0 0.0
12/08:30pm 32.1 35.3 26.4 72 4.1 W 22 28 12 15 1006.8 1006.7 0.0
12/08:00pm 32.6 36.0 26.2 69 4.6 W 20 22 11 12 1006.5 1006.4 0.0
12/07:30pm 33.6 36.3 24.2 58 6.6 W 17 20 9 11 1006.1 1006.0 0.0
12/07:00pm 34.2 37.0 25.0 58 6.5 W 19 22 10 12 1005.8 1005.7 0.0
12/06:30pm 35.2 36.8 23.2 49 8.3 W 20 24 11 13 1005.3 1005.2 0.0
12/06:00pm 35.1 38.3 27.0 63 5.9 W 24 28 13 15 1005.2 1005.1 0.0
12/05:30pm 37.7 37.0 19.6 34 12.1 WNW 22 28 12 15 1005.0 1004.9 0.0
12/05:00pm 37.9 37.5 19.3 33 12.4 WNW 20 24 11 13 1004.7 1004.6 0.0
12/04:30pm 37.7 39.2 23.0 43 10.2 NW 20 28 11 15 1004.6 1004.5 0.0
12/04:00pm 39.2 37.3 16.8 27 14.5 NNW 22 30 12 16 1004.5 1004.4 0.0
12/03:30pm 38.8 36.8 17.5 28 13.9 NNW 24 32 13 17 1004.5 1004.4 0.0
12/03:00pm 39.3 38.0 19.0 30 13.5 NNW 24 33 13 18 1004.6 1004.5 0.0
12/02:30pm 39.3 38.3 20.5 33 12.8 NNW 26 33 14 18 1004.8 1004.7 0.0
12/02:00pm 40.0 39.2 21.6 34 12.7 N 28 39 15 21 1005.1 1005.0 0.0
12/01:30pm 44.1 38.9 7.1 11 21.3 NNE 24 30 13 16 1005.4 1005.3 0.0
12/01:00pm 43.2 36.9 3.5 9 21.7 NNE 26 32 14 17 1005.7 1005.6 0.0
12/12:30pm 43.9 38.7 5.5 10 21.6 NNE 22 32 12 17 1006.0 1005.9 0.0
12/12:00pm 42.9 39.0 8.6 13 20.1 NNE 19 28 10 15 1006.5 1006.4 0.0
12/11:30am 42.4 39.0 9.3 14 19.5 NNE 17 24 9 13 1006.8 1006.7 0.0
12/11:00am 43.1 38.7 4.9 10 21.3 NE 17 20 9 11 1007.0 1006.9 0.0
12/10:30am 42.5 38.8 9.4 14 19.6 ENE 19 24 10 13 1007.3 1007.2 0.0
12/10:00am 40.3 39.2 15.2 23 16.0 NE 15 20 8 11 1007.6 1007.5 0.0
12/09:30am 42.0 40.7 10.0 15 19.0 E 7 11 4 6 1007.6 1007.5 0.0
12/09:00am 41.5 37.2 5.1 11 20.2 SSE 17 20 9 11 1007.8 1007.7 0.0
12/08:30am 39.9 36.7 8.4 15 18.2 SSE 15 19 8 10 1007.9 1007.8 0.0
12/08:00am 37.2 35.3 10.5 20 15.7 SSE 11 13 6 7 1007.8 1007.7 0.0
12/07:30am 33.1 33.4 11.0 26 12.9 CALM 0 0 0 0 1007.8 1007.7 0.0
12/07:00am 31.0 30.9 10.9 29 11.6 S 2 11 1 6 1007.6 1007.5 0.0
12/06:30am 29.2 28.7 12.2 35 9.9 S 6 9 3 5 1007.5 1007.4 0.0
12/06:00am 28.1 29.0 16.1 48 7.4 SSW 6 9 3 5 1007.3 1007.2 0.0
12/05:30am 28.5 30.0 17.7 52 6.8 WSW 6 7 3 4 1007.0 1006.9 0.0
12/05:00am 27.7 28.9 17.3 53 6.5 SW 7 9 4 5 1007.0 1006.9 0.0
12/04:30am 28.4 29.1 17.9 53 6.7 WSW 11 13 6 7 1006.9 1006.8 0.0
12/04:00am 28.9 30.2 20.1 59 5.8 WSW 13 17 7 9 1006.8 1006.7 0.0
12/03:30am 28.2 30.8 20.5 63 5.1 SW 7 13 4 7 1006.7 1006.6 0.0
12/03:00am 28.6 30.9 19.8 59 5.8 WSW 7 15 4 8 1006.6 1006.5 0.0
12/02:30am 29.8 32.4 22.0 63 5.3 WSW 11 13 6 7 1006.6 1006.5 0.0
12/02:00am 30.8 33.5 22.1 59 5.9 WSW 11 13 6 7 1006.8 1006.7 0.0
12/01:30am 30.9 34.2 22.5 61 5.7 W 9 13 5 7 1007.1 1007.0 0.0
12/01:00am 31.3 33.9 22.6 60 6.0 WSW 13 17 7 9 1007.3 1007.2 0.0
12/12:30am 30.5 33.9 22.7 63 5.3 SW 9 11 5 6 1007.6 1007.5 0.0
12/12:00am 31.3 34.7 23.4 63 5.5 SW 11 15 6 8 1007.8 1007.7 0.0
 
Date/Time
WST
Temp
°C
App
Temp
°C
Dew
Point
Rel
Hum
%
Delta-T
°C
Wind Press
QNH
hPa
Press
MSL
hPa
Rain
since 9 am
mm
Dir
 
Spd
km/h
Gust
km/h
Spd
kts
Gust
kts
11/11:30pm 32.1 35.4 23.9 62 5.7 WSW 13 15 7 8 1007.9 1007.8 0.0
11/11:00pm 32.7 35.6 23.9 60 6.1 WSW 15 17 8 9 1008.1 1008.0 0.0
11/10:30pm 32.9 35.9 25.2 64 5.5 WSW 19 22 10 12 1008.2 1008.1 0.0
11/10:00pm 33.9 36.6 24.8 59 6.4 W 19 20 10 11 1007.9 1007.8 0.0
11/09:30pm 34.2 37.1 24.5 57 6.8 W 17 19 9 10 1007.8 1007.7 0.0
11/09:00pm 34.6 37.0 24.2 54 7.3 W 19 20 10 11 1007.6 1007.5 0.0
11/08:30pm 34.8 38.2 24.1 53 7.5 W 13 17 7 9 1007.3 1007.2 0.0
11/08:00pm 35.2 37.5 23.5 50 8.2 W 17 20 9 11 1007.0 1006.9 0.0
11/07:30pm 35.5 36.8 22.4 46 9.0 W 19 20 10 11 1006.7 1006.6 0.0
11/07:00pm 36.0 38.0 22.9 46 9.1 W 17 20 9 11 1006.4 1006.3 0.0
11/06:30pm 38.1 38.0 19.5 33 12.4 W 19 24 10 13 1006.0 1005.9 0.0
11/06:00pm 39.4 39.7 19.6 31 13.3 W 17 20 9 11 1005.6 1005.5 0.0
11/05:30pm 40.2 40.7 20.8 32 13.2 WNW 19 22 10 12 1005.3 1005.2 0.0
11/05:00pm 41.3 38.2 12.2 18 17.9 NW 20 26 11 14 1005.0 1004.9 0.0
11/04:30pm 41.0 39.4 16.4 23 15.9 WNW 20 26 11 14 1004.7 1004.6 0.0
11/04:00pm 42.0 42.0 19.7 27 15.1 NW 19 24 10 13 1004.7 1004.6 0.0
11/03:30pm 41.0 39.8 18.3 26 15.0 NW 22 28 12 15 1004.8 1004.7 0.0
11/03:00pm 42.3 41.3 18.8 26 15.8 NNE 22 30 12 16 1004.9 1004.8 0.0
11/02:30pm 42.7 38.4 10.6 15 19.3 NNE 24 32 13 17 1005.2 1005.1 0.0
11/02:00pm 42.5 38.0 11.4 16 19.0 NNE 26 33 14 18 1005.5 1005.4 0.0
11/01:30pm 42.7 38.1 9.5 14 19.7 NNE 24 33 13 18 1005.8 1005.7 0.0
11/01:00pm 43.2 38.9 7.7 12 20.6 NNE 20 28 11 15 1006.1 1006.0 0.0
11/12:30pm 44.2 38.0 4.2 9 22.1 NE 26 33 14 18 1006.4 1006.3 0.0
11/12:00pm 44.3 40.6 4.3 9 22.2 NNE 13 20 7 11 1006.6 1006.5 0.0
11/11:30am 43.8 40.7 5.5 10 21.6 NE 11 19 6 10 1006.9 1006.8 0.0
11/11:00am 42.6 41.8 14.1 19 18.0 N 11 15 6 8 1007.2 1007.1 0.0
11/10:30am 41.6 40.3 12.5 18 17.9 NE 11 15 6 8 1007.6 1007.5 0.0
11/10:00am 40.4 40.4 15.2 22 16.0 NNE 9 13 5 7 1008.0 1007.9 0.0
11/09:30am 39.6 40.5 16.5 25 14.9 NE 7 11 4 6 1008.3 1008.2 0.0
11/09:00am 39.9 39.9 14.1 21 16.2 E 7 11 4 6 1008.5 1008.4 0.0
11/08:30am 38.8 36.4 10.2 18 16.9 SSE 13 17 7 9 1008.6 1008.5 0.0
11/08:00am 35.8 35.5 12.7 25 14.0 S 6 9 3 5 1008.5 1008.4 0.0
11/07:30am 33.6 34.5 15.1 33 11.5 SW 4 9 2 5 1008.3 1008.2 0.0
11/07:00am 30.0 32.0 17.8 48 7.8 SSW 4 7 2 4 1008.2 1008.1 0.0
11/06:30am 27.2 27.9 15.6 49 7.1 S 6 9 3 5 1007.9 1007.8 0.0
11/06:00am 26.5 28.8 17.8 58 5.5 S 2 7 1 4 1007.7 1007.6 0.0
11/05:30am 27.6 30.9 19.1 59 5.5 CALM 0 0 0 0 1007.5 1007.4 0.0
11/05:00am 28.3 32.1 20.1 61 5.4 CALM 0 0 0 0 1007.2 1007.1 0.0
11/04:30am 27.3 30.7 19.4 62 5.1 CALM 0 2 0 1 1007.2 1007.1 0.0
11/04:00am 28.6 31.3 21.4 65 4.8 WSW 9 9 5 5 1006.9 1006.8 0.0
11/03:30am 29.4 33.2 22.4 66 4.7 WSW 6 9 3 5 1006.7 1006.6 0.0
11/03:00am 28.2 30.8 21.2 65 4.7 SSW 9 11 5 6 1006.7 1006.6 0.0
11/02:30am 29.8 33.6 21.7 61 5.4 WSW 4 7 2 4 1006.7 1006.6 0.0
11/02:00am 30.3 33.7 22.7 64 5.2 WSW 9 13 5 7 1006.7 1006.6 0.0
11/01:30am 31.0 34.7 22.6 61 5.7 WSW 7 9 4 5 1006.7 1006.6 0.0
11/01:00am 31.4 34.6 22.4 59 6.1 WSW 9 11 5 6 1006.8 1006.7 0.0
11/12:30am 31.9 35.2 23.2 60 6.0 W 11 13 6 7 1007.1 1007.0 0.0
11/12:00am 31.3 35.9 24.7 68 4.6 WSW 9 13 5 7 1007.5 1007.4 0.0
 
Date/Time
WST
Temp
°C
App
Temp
°C
Dew
Point
Rel
Hum
%
Delta-T
°C
Wind Press
QNH
hPa
Press
MSL
hPa
Rain
since 9 am
mm
Dir
 
Spd
km/h
Gust
km/h
Spd
kts
Gust
kts
10/11:30pm 31.5 35.8 24.9 68 4.6 WSW 11 13 6 7 1007.8 1007.7 0.0
10/11:00pm 31.2 35.8 24.8 69 4.5 SW 9 11 5 6 1008.0 1007.9 0.0
10/10:30pm 32.5 36.5 25.1 65 5.2 WSW 13 17 7 9 1008.0 1007.9 0.0
10/10:00pm 33.1 35.8 24.8 61 5.9 WSW 19 22 10 12 1007.8 1007.7 0.0
10/09:30pm 33.6 36.0 24.2 58 6.6 WSW 19 22 10 12 1007.8 1007.7 0.0
10/09:00pm 33.9 36.6 24.8 59 6.4 WSW 19 22 10 12 1007.7 1007.6 0.0
10/08:30pm 33.8 37.5 25.8 63 5.7 WSW 17 22 9 12 1007.5 1007.4 0.0
10/08:00pm 33.8 37.7 26.0 63 5.6 WSW 17 20 9 11 1007.4 1007.3 0.0
10/07:30pm 33.9 38.2 26.6 65 5.3 W 17 20 9 11 1007.1 1007.0 0.0
10/07:00pm 34.3 37.4 25.7 61 6.2 W 20 24 11 13 1006.8 1006.7 0.0
10/06:30pm 35.8 39.2 25.9 56 7.1 W 19 20 10 11 1006.4 1006.3 0.0
10/06:00pm 37.4 38.3 21.5 39 10.9 WNW 19 22 10 12 1006.1 1006.0 0.0
10/05:30pm 38.4 38.6 20.2 34 12.3 WNW 19 26 10 14 1005.8 1005.7 0.0
10/05:00pm 39.5 39.1 18.1 28 14.1 NW 17 24 9 13 1005.6 1005.5 0.0
10/04:30pm 40.5 40.8 19.5 29 14.1 NW 17 20 9 11 1005.5 1005.4 0.0
10/04:00pm 40.1 40.8 21.2 33 13.0 NW 19 24 10 13 1005.3 1005.2 0.0
10/03:30pm 40.2 40.9 22.2 35 12.5 NW 22 28 12 15 1005.2 1005.1 0.0
10/03:00pm 41.0 41.3 21.5 32 13.5 NW 22 30 12 16 1005.1 1005.0 0.0
10/02:30pm 42.7 41.5 15.0 20 17.7 N 15 20 8 11 1005.4 1005.3 0.0
10/02:00pm 43.0 38.2 8.7 13 20.2 NNE 24 32 13 17 1005.6 1005.5 0.0
10/01:30pm 43.2 39.1 8.8 13 20.2 NNE 20 26 11 14 1005.8 1005.7 0.0
10/01:00pm 44.0 40.0 8.3 12 21.0 NNE 19 26 10 14 1006.3 1006.2 0.0
10/12:30pm 42.8 38.9 8.5 13 20.1 N 19 24 10 13 1006.7 1006.6 0.0
10/12:00pm 43.2 38.4 8.8 13 20.3 NE 24 32 13 17 1007.0 1006.9 0.0
10/11:30am 43.9 40.6 11.5 15 19.8 ENE 20 28 11 15 1007.3 1007.2 0.0
10/11:00am 43.6 39.0 8.0 12 20.8 ENE 22 30 12 16 1007.6 1007.5 0.0
10/10:30am 43.7 40.0 8.0 12 20.8 SE 17 24 9 13 1007.8 1007.7 0.0
10/10:00am 39.9 41.1 19.0 29 14.0 W 11 17 6 9 1008.2 1008.1 0.0
10/09:30am 36.7 39.8 24.2 48 8.8 W 15 17 8 9 1008.5 1008.4 0.0
10/09:00am 35.0 39.1 25.2 57 7.0 WNW 13 15 7 8 1008.7 1008.6 0.0
10/08:30am 35.3 36.9 20.8 42 9.8 SSW 13 20 7 11 1008.8 1008.7 0.0
10/08:00am 31.9 37.3 25.5 69 4.5 SW 7 9 4 5 1009.1 1009.0 0.0
10/07:30am 29.8 36.3 27.6 88 1.6 WSW 9 11 5 6 1009.1 1009.0 0.0
10/07:00am 28.6 34.9 27.9 96 0.5 SW 11 13 6 7 1009.0 1008.9 0.0
10/06:30am 27.8 34.4 27.8 100 0.0 WSW 9 11 5 6 1008.8 1008.7 0.0

Other Formats:

Comma delimited format used in spreadsheet applications
http://www.bom.gov.au/fwo/IDW60801/IDW60801.95307.axf

JavaScript Object Notation format (JSON) in row-major order
http://www.bom.gov.au/fwo/IDW60801/IDW60801.95307.json